Terminal Aerodrome Forecast
Issued by NWS Cleveland, OH

Home | Current Version | Previous Version | Text Only | Print | Product List | Glossary On
Versions: 1 2 3 4 5 6 7 8 9 10 11 12 13 14 15 16 17 18 19 20 21 22 23 24 25 26
801
FTUS41 KCLE 111741
TAFTOL
TAF
KTOL 111741Z 1118/1218 18008KT P6SM SCT025 BKN060
     FM112100 16006KT P6SM VCSH BKN035
      TEMPO 1121/1123 3SM -SHSN BKN025
     FM120200 VRB06KT 4SM -SN OVC025
     FM120500 29010KT 2SM -SN OVC015
     FM120900 30018G28KT 6SM -SHSN OVC025
     FM121300 30018G28KT P6SM OVC025=

USA.gov is the U.S. government's official web portal to all federal, state and local government web resources and services.